Terminal Aerodrome Forecast
Issued by NWS

Home | Current Version | Previous Version | Text Only | Print | Product List | Glossary On
Versions: 1 2 3 4 5 6 7 8 9 10 11 12 13
000
FTUS45 KRIW 202323
TAFCPR
TAF
KCPR 202323Z 2100/2124 26018G28KT P6SM VCSH SCT080 BKN200
     FM210500 25012KT P6SM SCT080 SCT200
     FM211600 26018G26KT P6SM SCT060 SCT200=

USA.gov is the U.S. government's official web portal to all federal, state and local government web resources and services.